Time,TemperatureF,DewpointF,PressureIn,WindDirection,WindDirectionDegrees,WindSpeedMPH,WindSpeedGustMPH,Humidity,HourlyPrecipIn,Conditions,Clouds,dailyrainin,SoftwareType,DateUTC
2013-10-02 00:01:00,60.6,60.1,28.88,WSW,237,0.0,0.0,98,0.00,,---,0.00,VWS V13.00,2013-10-02 04:01:00,
2013-10-02 00:02:00,60.6,60.1,28.88,WSW,237,0.0,0.0,98,0.00,,---,0.00,VWS V13.00,2013-10-02 04:02:00,
2013-10-02 00:03:00,60.6,60.1,28.88,WNW,302,0.0,2.7,98,0.00,,---,0.00,VWS V13.00,2013-10-02 04:03:00,
2013-10-02 00:08:00,60.6,60.1,28.88,WNW,302,0.0,2.7,98,0.00,,---,0.00,VWS V13.00,2013-10-02 04:08:00,
2013-10-02 00:13:00,60.6,60.1,28.88,WNW,302,0.0,2.7,98,0.00,,---,0.00,VWS V13.00,2013-10-02 04:13:00,
2013-10-02 00:18:00,60.6,60.1,28.88,WNW,302,0.0,2.7,98,0.00,,---,0.00,VWS V13.00,2013-10-02 04:18:00,
2013-10-02 00:23:00,61.2,60.6,28.88,WNW,302,0.0,0.0,98,0.00,,---,0.00,VWS V13.00,2013-10-02 04:23:00,
2013-10-02 00:28:00,60.8,60.2,28.88,WNW,302,0.0,0.0,98,0.00,,---,0.00,VWS V13.00,2013-10-02 04:28:00,
2013-10-02 00:33:00,61.3,60.8,28.88,WNW,302,0.0,0.0,98,0.00,,---,0.00,VWS V13.00,2013-10-02 04:33:00,
2013-10-02 00:38:00,61.2,60.6,28.88,WNW,302,0.0,0.0,98,0.00,,---,0.00,VWS V13.00,2013-10-02 04:38:00,
2013-10-02 00:43:00,61.0,60.4,28.88,WNW,302,0.0,0.0,98,0.00,,---,0.00,VWS V13.00,2013-10-02 04:43:00,
2013-10-02 00:48:00,61.0,60.4,28.88,WNW,302,0.0,0.0,98,0.00,,---,0.00,VWS V13.00,2013-10-02 04:48:00,
2013-10-02 00:53:00,61.0,60.4,28.88,WNW,302,0.0,0.0,98,0.00,,---,0.00,VWS V13.00,2013-10-02 04:53:00,
2013-10-02 00:59:00,61.3,60.8,28.88,WNW,302,0.0,0.0,98,0.00,,---,0.00,VWS V13.00,2013-10-02 04:59:00,
2013-10-02 01:04:00,60.8,60.2,28.88,WNW,302,0.0,0.0,98,0.00,,---,0.00,VWS V13.00,2013-10-02 05:04:00,
2013-10-02 01:09:00,60.6,60.1,28.88,WNW,293,0.0,0.0,98,0.00,,---,0.00,VWS V13.00,2013-10-02 05:09:00,
2013-10-02 01:14:00,60.8,60.2,28.88,WNW,293,0.0,0.0,98,0.00,,---,0.00,VWS V13.00,2013-10-02 05:14:00,
2013-10-02 01:19:00,60.8,60.0,28.88,WNW,293,0.0,0.0,97,0.00,,---,0.00,VWS V13.00,2013-10-02 05:19:00,
2013-10-02 01:24:00,60.6,60.1,28.88,WNW,293,0.0,0.0,98,0.00,,---,0.00,VWS V13.00,2013-10-02 05:24:00,
2013-10-02 01:29:00,60.6,60.1,28.88,WNW,293,0.0,0.0,98,0.00,,---,0.00,VWS V13.00,2013-10-02 05:29:00,
2013-10-02 01:34:00,60.4,59.9,28.88,WNW,293,0.0,0.0,98,0.00,,---,0.00,VWS V13.00,2013-10-02 05:34:00,
2013-10-02 01:39:00,60.1,59.2,28.88,WNW,293,0.0,0.0,97,0.00,,---,0.00,VWS V13.00,2013-10-02 05:39:00,
2013-10-02 01:44:00,60.1,59.2,28.88,WNW,293,0.0,0.0,97,0.00,,---,0.00,VWS V13.00,2013-10-02 05:44:00,
2013-10-02 01:49:00,60.6,60.1,28.88,WNW,293,0.0,0.0,98,0.00,,---,0.00,VWS V13.00,2013-10-02 05:49:00,
2013-10-02 01:55:00,60.3,59.7,28.88,WNW,293,0.0,0.0,98,0.00,,---,0.00,VWS V13.00,2013-10-02 05:55:00,
2013-10-02 02:00:00,60.3,59.7,28.88,WNW,293,0.0,0.0,98,0.00,,---,0.00,VWS V13.00,2013-10-02 06:00:00,
2013-10-02 02:05:00,60.1,59.5,28.88,WNW,293,0.0,0.0,98,0.00,,---,0.00,VWS V13.00,2013-10-02 06:05:00,
2013-10-02 02:10:00,60.3,59.7,28.88,WNW,293,0.0,0.0,98,0.00,,---,0.00,VWS V13.00,2013-10-02 06:10:00,
2013-10-02 02:15:00,60.4,59.9,28.88,WNW,293,0.0,0.0,98,0.00,,---,0.00,VWS V13.00,2013-10-02 06:15:00,
2013-10-02 02:20:00,60.6,60.1,28.88,NW,310,0.0,0.0,98,0.00,,---,0.00,VWS V13.00,2013-10-02 06:20:00,
2013-10-02 02:25:00,60.6,60.1,28.88,NW,310,0.0,0.0,98,0.00,,---,0.00,VWS V13.00,2013-10-02 06:25:00,
2013-10-02 02:30:00,61.7,61.1,28.88,WNW,298,0.0,0.0,98,0.00,,---,0.00,VWS V13.00,2013-10-02 06:30:00,
2013-10-02 02:35:00,62.2,61.7,28.88,West,265,2.2,2.2,98,0.00,,---,0.00,VWS V13.00,2013-10-02 06:35:00,
2013-10-02 02:40:00,62.2,61.7,28.88,West,259,0.0,0.0,98,0.00,,---,0.00,VWS V13.00,2013-10-02 06:40:00,
2013-10-02 02:45:00,62.6,62.0,28.88,South,191,0.0,3.1,98,0.00,,---,0.00,VWS V13.00,2013-10-02 06:45:00,
2013-10-02 02:50:00,62.6,62.0,28.88,South,191,0.0,3.1,98,0.00,,---,0.00,VWS V13.00,2013-10-02 06:50:00,
2013-10-02 02:56:00,62.2,61.7,28.88,South,191,0.0,3.1,98,0.00,,---,0.00,VWS V13.00,2013-10-02 06:56:00,
2013-10-02 03:01:00,62.1,61.5,28.88,WSW,255,0.0,0.0,98,0.00,,---,0.00,VWS V13.00,2013-10-02 07:01:00,
2013-10-02 03:06:00,61.9,61.3,28.88,WSW,250,0.0,0.0,98,0.00,,---,0.00,VWS V13.00,2013-10-02 07:06:00,
2013-10-02 03:11:00,61.9,61.0,28.88,WSW,250,0.0,0.0,97,0.00,,---,0.00,VWS V13.00,2013-10-02 07:11:00,
2013-10-02 03:16:00,61.9,61.0,28.88,WSW,250,0.0,0.0,97,0.00,,---,0.00,VWS V13.00,2013-10-02 07:16:00,
2013-10-02 03:21:00,61.5,60.4,28.88,WSW,250,0.0,0.0,96,0.00,,---,0.00,VWS V13.00,2013-10-02 07:21:00,
2013-10-02 03:26:00,60.6,59.5,28.88,WSW,250,0.0,0.0,96,0.00,,---,0.00,VWS V13.00,2013-10-02 07:26:00,
2013-10-02 03:31:00,60.3,59.1,28.88,WSW,250,0.0,0.0,96,0.00,,---,0.00,VWS V13.00,2013-10-02 07:31:00,
2013-10-02 03:36:00,60.3,59.1,28.88,WSW,250,0.0,0.0,96,0.00,,---,0.00,VWS V13.00,2013-10-02 07:36:00,
2013-10-02 03:41:00,60.3,59.4,28.88,WSW,250,0.0,0.0,97,0.00,,---,0.00,VWS V13.00,2013-10-02 07:41:00,
2013-10-02 03:46:00,60.8,60.2,28.88,WSW,250,0.0,0.0,98,0.00,,---,0.00,VWS V13.00,2013-10-02 07:46:00,
2013-10-02 03:51:00,60.6,60.1,28.88,WSW,250,0.0,0.0,98,0.00,,---,0.00,VWS V13.00,2013-10-02 07:51:00,
2013-10-02 03:56:00,60.4,59.9,28.88,WSW,250,0.0,0.0,98,0.00,,---,0.00,VWS V13.00,2013-10-02 07:56:00,
2013-10-02 04:01:00,61.2,60.6,28.88,WSW,250,0.0,0.0,98,0.00,,---,0.00,VWS V13.00,2013-10-02 08:01:00,
2013-10-02 04:06:00,60.6,60.1,28.88,WSW,250,0.0,0.0,98,0.00,,---,0.00,VWS V13.00,2013-10-02 08:06:00,
2013-10-02 04:11:00,60.8,60.2,28.88,WSW,250,0.0,0.0,98,0.00,,---,0.00,VWS V13.00,2013-10-02 08:11:00,
2013-10-02 04:16:00,60.8,60.2,28.88,WSW,250,0.0,0.0,98,0.00,,---,0.00,VWS V13.00,2013-10-02 08:16:00,
2013-10-02 04:22:00,60.8,60.2,28.88,WSW,250,0.0,0.0,98,0.00,,---,0.00,VWS V13.00,2013-10-02 08:22:00,
2013-10-02 04:27:00,60.6,60.1,28.88,WSW,250,0.0,0.0,98,0.00,,---,0.00,VWS V13.00,2013-10-02 08:27:00,
2013-10-02 04:32:00,60.8,60.2,28.88,WSW,250,0.0,0.0,98,0.00,,---,0.00,VWS V13.00,2013-10-02 08:32:00,
2013-10-02 04:37:00,61.0,60.4,28.88,WSW,250,0.0,0.0,98,0.00,,---,0.00,VWS V13.00,2013-10-02 08:37:00,
2013-10-02 04:42:00,60.4,59.9,28.88,WSW,250,0.0,0.0,98,0.00,,---,0.00,VWS V13.00,2013-10-02 08:42:00,
2013-10-02 04:47:00,60.8,60.2,28.88,WSW,250,0.0,0.0,98,0.00,,---,0.00,VWS V13.00,2013-10-02 08:47:00,
2013-10-02 04:52:00,60.3,59.7,28.88,WSW,250,0.0,0.0,98,0.00,,---,0.00,VWS V13.00,2013-10-02 08:52:00,
2013-10-02 04:57:00,60.4,59.9,28.88,WSW,250,0.0,0.0,98,0.00,,---,0.00,VWS V13.00,2013-10-02 08:57:00,
2013-10-02 05:02:00,60.3,59.7,28.88,WSW,250,0.0,0.0,98,0.00,,---,0.00,VWS V13.00,2013-10-02 09:02:00,
2013-10-02 05:07:00,60.6,60.1,28.88,WSW,250,0.0,0.0,98,0.00,,---,0.00,VWS V13.00,2013-10-02 09:07:00,
2013-10-02 05:12:00,60.8,60.2,28.88,WSW,250,0.0,0.0,98,0.00,,---,0.00,VWS V13.00,2013-10-02 09:12:00,
2013-10-02 05:17:00,60.4,59.9,28.88,WSW,250,0.0,0.0,98,0.00,,---,0.00,VWS V13.00,2013-10-02 09:17:00,
2013-10-02 05:22:00,61.0,60.4,28.88,WSW,250,0.0,0.0,98,0.00,,---,0.00,VWS V13.00,2013-10-02 09:22:00,
2013-10-02 05:27:00,60.4,59.9,28.88,West,267,0.0,3.6,98,0.00,,---,0.00,VWS V13.00,2013-10-02 09:27:00,
2013-10-02 05:32:00,60.4,59.9,28.88,WNW,289,2.2,3.6,98,0.00,,---,0.00,VWS V13.00,2013-10-02 09:32:00,
2013-10-02 05:37:00,61.3,60.8,28.88,SW,232,0.0,4.0,98,0.00,,---,0.00,VWS V13.00,2013-10-02 09:37:00,
2013-10-02 05:43:00,61.7,61.1,28.88,SW,233,0.0,3.6,98,0.00,,---,0.00,VWS V13.00,2013-10-02 09:43:00,
2013-10-02 05:48:00,61.7,61.1,28.88,West,266,2.7,3.6,98,0.00,,---,0.00,VWS V13.00,2013-10-02 09:48:00,
2013-10-02 05:53:00,62.1,61.5,28.88,WSW,258,2.2,4.0,98,0.00,,---,0.00,VWS V13.00,2013-10-02 09:53:00,
2013-10-02 05:58:00,61.7,61.1,28.88,WSW,248,0.0,4.0,98,0.00,,---,0.00,VWS V13.00,2013-10-02 09:58:00,
2013-10-02 06:03:00,61.9,61.3,28.88,WNW,285,2.7,3.6,98,0.00,,---,0.00,VWS V13.00,2013-10-02 10:03:00,
2013-10-02 06:08:00,62.6,62.0,28.88,WNW,289,2.7,3.6,98,0.00,,---,0.00,VWS V13.00,2013-10-02 10:08:00,
2013-10-02 06:13:00,61.3,60.8,28.88,West,261,2.7,4.0,98,0.00,,---,0.00,VWS V13.00,2013-10-02 10:13:00,
2013-10-02 06:18:00,62.4,61.8,28.88,West,269,0.0,4.0,98,0.00,,---,0.00,VWS V13.00,2013-10-02 10:18:00,
2013-10-02 06:23:00,62.6,62.0,28.88,West,274,0.0,2.7,98,0.00,,---,0.00,VWS V13.00,2013-10-02 10:23:00,
2013-10-02 06:28:00,62.4,61.8,28.91,West,271,0.0,2.7,98,0.00,,---,0.00,VWS V13.00,2013-10-02 10:28:00,
2013-10-02 06:33:00,62.4,61.8,28.91,WSW,256,0.0,2.7,98,0.00,,---,0.00,VWS V13.00,2013-10-02 10:33:00,
2013-10-02 06:38:00,62.2,61.7,28.91,West,261,0.0,2.7,98,0.00,,---,0.00,VWS V13.00,2013-10-02 10:38:00,
2013-10-02 06:43:00,62.1,61.5,28.91,WNW,286,0.0,2.7,98,0.00,,---,0.00,VWS V13.00,2013-10-02 10:43:00,
2013-10-02 06:48:00,62.1,61.5,28.91,West,269,0.0,3.1,98,0.00,,---,0.00,VWS V13.00,2013-10-02 10:48:00,
2013-10-02 06:53:00,62.1,61.5,28.91,WNW,283,0.0,3.6,98,0.00,,---,0.00,VWS V13.00,2013-10-02 10:53:00,
2013-10-02 06:58:00,61.7,61.1,28.91,WNW,283,0.0,3.6,98,0.00,,---,0.00,VWS V13.00,2013-10-02 10:58:00,
2013-10-02 07:03:00,62.2,61.7,28.91,WSW,258,0.0,2.7,98,0.00,,---,0.00,VWS V13.00,2013-10-02 11:03:00,
2013-10-02 07:09:00,62.2,61.7,28.91,WSW,253,0.0,3.1,98,0.00,,---,0.00,VWS V13.00,2013-10-02 11:09:00,
2013-10-02 07:14:00,62.2,61.7,28.91,WNW,288,0.0,3.6,98,0.00,,---,0.00,VWS V13.00,2013-10-02 11:14:00,
2013-10-02 07:19:00,61.5,61.0,28.91,West,271,0.0,3.6,98,0.00,,---,0.00,VWS V13.00,2013-10-02 11:19:00,
2013-10-02 07:24:00,61.7,61.1,28.91,West,273,0.0,0.0,98,0.00,,---,0.00,VWS V13.00,2013-10-02 11:24:00,
2013-10-02 07:29:00,61.9,61.3,28.91,West,273,0.0,2.7,98,0.00,,---,0.00,VWS V13.00,2013-10-02 11:29:00,
2013-10-02 07:34:00,62.1,61.5,28.91,West,273,0.0,2.7,98,0.00,,---,0.00,VWS V13.00,2013-10-02 11:34:00,
2013-10-02 07:39:00,62.1,61.5,28.91,West,273,0.0,2.7,98,0.00,,---,0.00,VWS V13.00,2013-10-02 11:39:00,
2013-10-02 07:44:00,62.2,61.7,28.91,West,271,0.0,3.6,98,0.00,,---,0.00,VWS V13.00,2013-10-02 11:44:00,
2013-10-02 07:49:00,62.1,61.5,28.91,West,267,0.0,3.6,98,0.00,,---,0.00,VWS V13.00,2013-10-02 11:49:00,
2013-10-02 07:54:00,62.6,62.0,28.91,South,182,4.0,4.0,98,0.00,,---,0.00,VWS V13.00,2013-10-02 11:54:00,
2013-10-02 07:59:00,62.6,62.0,28.91,WNW,283,0.0,4.0,98,0.00,,---,0.00,VWS V13.00,2013-10-02 11:59:00,
2013-10-02 08:04:00,62.8,62.2,28.91,SW,229,2.7,3.1,98,0.00,,---,0.00,VWS V13.00,2013-10-02 12:04:00,
2013-10-02 08:09:00,63.0,62.4,28.91,WSW,238,2.2,3.1,98,0.00,,---,0.00,VWS V13.00,2013-10-02 12:09:00,
2013-10-02 08:14:00,63.0,62.4,28.91,West,271,0.0,3.6,98,0.00,,---,0.00,VWS V13.00,2013-10-02 12:14:00,
2013-10-02 08:19:00,63.3,62.8,28.91,West,260,2.7,3.6,98,0.00,,---,0.00,VWS V13.00,2013-10-02 12:19:00,
2013-10-02 08:24:00,63.5,62.9,28.91,WSW,238,0.0,3.6,98,0.00,,---,0.00,VWS V13.00,2013-10-02 12:24:00,
2013-10-02 08:29:00,63.7,63.1,28.91,West,261,2.7,4.0,98,0.00,,---,0.00,VWS V13.00,2013-10-02 12:29:00,
2013-10-02 08:35:00,63.9,63.3,28.91,WSW,247,3.1,4.0,98,0.00,,---,0.00,VWS V13.00,2013-10-02 12:35:00,
2013-10-02 08:40:00,64.0,63.5,28.91,WSW,238,2.7,4.0,98,0.00,,---,0.00,VWS V13.00,2013-10-02 12:40:00,
2013-10-02 08:45:00,64.2,63.7,28.91,West,264,0.0,4.0,98,0.00,,---,0.00,VWS V13.00,2013-10-02 12:45:00,
2013-10-02 08:50:00,64.4,63.5,28.91,WSW,244,2.2,4.0,97,0.00,,---,0.00,VWS V13.00,2013-10-02 12:50:00,
2013-10-02 08:55:00,64.8,63.3,28.91,West,280,2.7,4.9,95,0.00,,---,0.00,VWS V13.00,2013-10-02 12:55:00,
2013-10-02 09:00:00,64.8,62.7,28.91,West,262,2.7,3.1,93,0.00,,---,0.00,VWS V13.00,2013-10-02 13:00:00,
2013-10-02 09:05:00,65.1,62.4,28.91,West,260,2.7,6.3,91,0.00,,---,0.00,VWS V13.00,2013-10-02 13:05:00,
2013-10-02 09:10:00,65.7,63.0,28.91,West,273,2.2,6.3,91,0.00,,---,0.00,VWS V13.00,2013-10-02 13:10:00,
2013-10-02 09:15:00,65.5,62.2,28.91,West,281,4.0,8.1,89,0.00,,---,0.00,VWS V13.00,2013-10-02 13:15:00,
2013-10-02 09:20:00,65.8,61.9,28.91,West,265,3.1,4.0,87,0.00,,---,0.00,VWS V13.00,2013-10-02 13:20:00,
2013-10-02 09:25:00,66.2,61.9,28.91,WNW,289,4.0,8.1,86,0.00,,---,0.00,VWS V13.00,2013-10-02 13:25:00,
2013-10-02 09:30:00,66.2,61.6,28.91,West,276,4.0,8.1,85,0.00,,---,0.00,VWS V13.00,2013-10-02 13:30:00,
2013-10-02 09:35:00,66.4,61.1,28.91,WSW,249,6.3,8.1,83,0.00,,---,0.00,VWS V13.00,2013-10-02 13:35:00,
2013-10-02 09:40:00,66.6,60.6,28.94,WSW,245,3.6,4.0,81,0.00,,---,0.00,VWS V13.00,2013-10-02 13:40:00,
2013-10-02 09:45:00,66.9,60.9,28.94,WNW,299,2.7,7.6,81,0.00,,---,0.00,VWS V13.00,2013-10-02 13:45:00,
2013-10-02 09:51:00,66.9,60.2,28.94,WNW,287,3.1,7.6,79,0.00,,---,0.00,VWS V13.00,2013-10-02 13:51:00,
2013-10-02 09:56:00,67.5,60.4,28.94,WSW,256,0.0,7.6,78,0.00,,---,0.00,VWS V13.00,2013-10-02 13:56:00,
2013-10-02 10:01:00,67.5,60.4,28.94,WSW,254,3.6,4.0,78,0.00,,---,0.00,VWS V13.00,2013-10-02 14:01:00,
2013-10-02 10:06:00,67.6,59.8,28.94,WSW,238,5.8,7.6,76,0.00,,---,0.00,VWS V13.00,2013-10-02 14:06:00,
2013-10-02 10:11:00,67.8,59.6,28.94,West,261,5.4,7.6,75,0.00,,---,0.00,VWS V13.00,2013-10-02 14:11:00,
2013-10-02 10:16:00,68.5,59.9,28.94,WNW,283,3.1,8.3,74,0.00,,---,0.00,VWS V13.00,2013-10-02 14:16:00,
2013-10-02 10:21:00,68.7,59.3,28.94,West,268,6.3,6.3,72,0.00,,---,0.00,VWS V13.00,2013-10-02 14:21:00,
2013-10-02 10:26:00,69.1,59.3,28.94,SSW,198,3.1,6.3,71,0.00,,---,0.00,VWS V13.00,2013-10-02 14:26:00,
2013-10-02 10:31:00,69.1,58.9,28.94,West,269,4.0,7.6,70,0.00,,---,0.00,VWS V13.00,2013-10-02 14:31:00,
2013-10-02 10:36:00,69.8,59.2,28.94,WNW,292,4.0,7.6,69,0.00,,---,0.00,VWS V13.00,2013-10-02 14:36:00,
2013-10-02 10:41:00,70.0,59.3,28.94,WNW,287,4.0,4.0,69,0.00,,---,0.00,VWS V13.00,2013-10-02 14:41:00,
2013-10-02 10:46:00,70.3,60.1,28.94,WSW,247,5.4,6.3,70,0.00,,---,0.00,VWS V13.00,2013-10-02 14:46:00,
2013-10-02 10:51:00,70.0,59.0,28.94,WSW,248,3.1,6.3,68,0.00,,---,0.00,VWS V13.00,2013-10-02 14:51:00,
2013-10-02 10:56:00,70.9,59.8,28.94,WSW,251,4.5,6.3,68,0.00,,---,0.00,VWS V13.00,2013-10-02 14:56:00,
2013-10-02 11:01:00,71.8,60.7,28.94,WNW,297,3.1,3.6,68,0.00,,---,0.00,VWS V13.00,2013-10-02 15:01:00,
2013-10-02 11:06:00,72.3,59.9,28.94,WNW,297,4.9,7.2,65,0.00,,---,0.00,VWS V13.00,2013-10-02 15:06:00,
2013-10-02 11:12:00,72.3,59.5,28.94,WSW,253,4.0,8.7,64,0.00,,---,0.00,VWS V13.00,2013-10-02 15:12:00,
2013-10-02 11:17:00,72.1,58.9,28.94,West,268,7.6,8.7,63,0.00,,---,0.00,VWS V13.00,2013-10-02 15:17:00,
2013-10-02 11:22:00,72.3,59.5,28.94,WNW,291,5.8,6.3,64,0.00,,---,0.00,VWS V13.00,2013-10-02 15:22:00,
2013-10-02 11:27:00,72.7,58.9,28.94,WSW,247,8.3,8.3,62,0.00,,---,0.00,VWS V13.00,2013-10-02 15:27:00,
2013-10-02 11:32:00,72.7,59.4,28.94,West,269,5.4,8.3,63,0.00,,---,0.00,VWS V13.00,2013-10-02 15:32:00,
2013-10-02 11:33:00,72.5,58.3,28.94,West,281,3.6,8.3,61,0.00,,---,0.00,VWS V13.00,2013-10-02 15:33:00,
2013-10-02 11:38:00,72.3,57.7,28.94,WNW,301,7.6,10.1,60,0.00,,---,0.00,VWS V13.00,2013-10-02 15:38:00,
2013-10-02 11:43:00,73.6,59.8,28.94,West,268,5.8,7.6,62,0.00,,---,0.00,VWS V13.00,2013-10-02 15:43:00,
2013-10-02 11:48:00,72.9,58.6,28.94,West,279,3.6,8.7,61,0.00,,---,0.00,VWS V13.00,2013-10-02 15:48:00,
2013-10-02 11:53:00,73.0,59.3,28.94,SW,217,4.9,8.7,62,0.00,,---,0.00,VWS V13.00,2013-10-02 15:53:00,
2013-10-02 11:58:00,74.1,59.8,28.94,WNW,298,4.9,8.7,61,0.00,,---,0.00,VWS V13.00,2013-10-02 15:58:00,
2013-10-02 12:03:00,74.3,59.1,28.94,West,276,4.0,7.6,59,0.00,,---,0.00,VWS V13.00,2013-10-02 16:03:00,
2013-10-02 12:08:00,73.4,57.3,28.94,West,263,3.6,8.7,57,0.00,,---,0.00,VWS V13.00,2013-10-02 16:08:00,
2013-10-02 12:13:00,73.2,57.6,28.91,West,274,8.7,8.7,58,0.00,,---,0.00,VWS V13.00,2013-10-02 16:13:00,
2013-10-02 12:18:00,73.9,57.8,28.91,WNW,294,5.8,8.7,57,0.00,,---,0.00,VWS V13.00,2013-10-02 16:18:00,
2013-10-02 12:23:00,73.8,57.6,28.91,West,262,4.0,7.6,57,0.00,,---,0.00,VWS V13.00,2013-10-02 16:23:00,
2013-10-02 12:28:00,74.5,57.3,28.91,West,261,5.4,8.1,55,0.00,,---,0.00,VWS V13.00,2013-10-02 16:28:00,
2013-10-02 12:33:00,75.2,55.8,28.91,West,274,0.0,8.3,51,0.00,,---,0.00,VWS V13.00,2013-10-02 16:33:00,
2013-10-02 12:39:00,75.7,55.2,28.91,WSW,250,8.3,8.3,49,0.00,,---,0.00,VWS V13.00,2013-10-02 16:39:00,
2013-10-02 12:44:00,75.2,55.8,28.91,West,281,7.6,8.3,51,0.00,,---,0.00,VWS V13.00,2013-10-02 16:44:00,
2013-10-02 12:49:00,75.0,56.2,28.91,WSW,245,2.7,8.3,52,0.00,,---,0.00,VWS V13.00,2013-10-02 16:49:00,
2013-10-02 12:54:00,74.3,55.6,28.91,West,265,5.8,8.3,52,0.00,,---,0.00,VWS V13.00,2013-10-02 16:54:00,
2013-10-02 12:59:00,73.9,56.3,28.91,West,278,4.5,8.3,54,0.00,,---,0.00,VWS V13.00,2013-10-02 16:59:00,
2013-10-02 13:04:00,73.4,55.2,28.91,WSW,252,3.6,5.8,53,0.00,,---,0.00,VWS V13.00,2013-10-02 17:04:00,
2013-10-02 13:09:00,73.6,55.9,28.91,WSW,247,2.7,6.3,54,0.00,,---,0.00,VWS V13.00,2013-10-02 17:09:00,
2013-10-02 13:14:00,74.3,56.1,28.91,West,279,2.7,6.3,53,0.00,,---,0.00,VWS V13.00,2013-10-02 17:14:00,
2013-10-02 13:19:00,75.6,54.5,28.91,West,274,6.3,6.3,48,0.00,,---,0.00,VWS V13.00,2013-10-02 17:19:00,
2013-10-02 13:24:00,76.6,53.1,28.91,WSW,247,3.6,7.6,44,0.00,,---,0.00,VWS V13.00,2013-10-02 17:24:00,
2013-10-02 13:29:00,75.6,51.5,28.91,WNW,285,5.8,8.3,43,0.00,,---,0.00,VWS V13.00,2013-10-02 17:29:00,
2013-10-02 13:34:00,75.4,52.6,28.91,WSW,248,4.0,8.3,45,0.00,,---,0.00,VWS V13.00,2013-10-02 17:34:00,
2013-10-02 13:39:00,75.9,53.7,28.91,West,272,5.4,8.3,46,0.00,,---,0.00,VWS V13.00,2013-10-02 17:39:00,
2013-10-02 13:44:00,75.4,52.0,28.91,West,268,4.9,6.3,44,0.00,,---,0.00,VWS V13.00,2013-10-02 17:44:00,
2013-10-02 13:49:00,75.4,52.6,28.91,West,273,2.2,6.3,45,0.00,,---,0.00,VWS V13.00,2013-10-02 17:49:00,
2013-10-02 13:54:00,75.2,53.0,28.91,WNW,297,2.7,6.3,46,0.00,,---,0.00,VWS V13.00,2013-10-02 17:54:00,
2013-10-02 13:59:00,74.8,52.1,28.91,West,274,2.7,6.3,45,0.00,,---,0.00,VWS V13.00,2013-10-02 17:59:00,
2013-10-02 14:05:00,74.8,52.1,28.91,WNW,285,3.6,6.3,45,0.00,,---,0.00,VWS V13.00,2013-10-02 18:05:00,
2013-10-02 14:10:00,75.2,51.8,28.91,WNW,289,3.1,6.3,44,0.00,,---,0.00,VWS V13.00,2013-10-02 18:10:00,
2013-10-02 14:15:00,75.0,53.4,28.91,West,261,2.2,6.3,47,0.00,,---,0.00,VWS V13.00,2013-10-02 18:15:00,
2013-10-02 14:20:00,76.3,52.8,28.91,WNW,295,3.6,6.7,44,0.00,,---,0.00,VWS V13.00,2013-10-02 18:20:00,
2013-10-02 14:25:00,76.3,51.5,28.88,WNW,292,4.0,6.3,42,0.00,,---,0.00,VWS V13.00,2013-10-02 18:25:00,
2013-10-02 14:30:00,75.9,51.8,28.88,West,273,4.0,6.3,43,0.00,,---,0.00,VWS V13.00,2013-10-02 18:30:00,
2013-10-02 14:35:00,75.7,52.3,28.88,WNW,282,3.6,7.6,44,0.00,,---,0.00,VWS V13.00,2013-10-02 18:35:00,
2013-10-02 14:40:00,76.6,53.1,28.88,West,270,2.7,2.7,44,0.00,,---,0.00,VWS V13.00,2013-10-02 18:40:00,
2013-10-02 14:45:00,78.4,52.1,28.88,WSW,249,5.4,6.3,40,0.00,,---,0.00,VWS V13.00,2013-10-02 18:45:00,
2013-10-02 14:50:00,78.8,49.6,28.88,WNW,296,3.1,8.7,36,0.00,,---,0.00,VWS V13.00,2013-10-02 18:50:00,
2013-10-02 14:55:00,79.0,49.0,28.88,WNW,295,6.3,8.7,35,0.00,,---,0.00,VWS V13.00,2013-10-02 18:55:00,
2013-10-02 15:00:00,77.2,49.6,28.88,West,279,4.0,7.6,38,0.00,,---,0.00,VWS V13.00,2013-10-02 19:00:00,
2013-10-02 15:05:00,76.6,49.8,28.88,West,265,5.4,7.6,39,0.00,,---,0.00,VWS V13.00,2013-10-02 19:05:00,
2013-10-02 15:10:00,77.4,50.5,28.88,WNW,294,5.4,7.6,39,0.00,,---,0.00,VWS V13.00,2013-10-02 19:10:00,
2013-10-02 15:15:00,77.2,49.6,28.88,WNW,287,4.9,8.3,38,0.00,,---,0.00,VWS V13.00,2013-10-02 19:15:00,
2013-10-02 15:20:00,77.7,50.8,28.88,WNW,282,4.9,6.3,39,0.00,,---,0.00,VWS V13.00,2013-10-02 19:20:00,
2013-10-02 15:25:00,77.4,49.1,28.88,WNW,287,4.0,6.3,37,0.00,,---,0.00,VWS V13.00,2013-10-02 19:25:00,
2013-10-02 15:31:00,76.8,50.0,28.88,West,281,5.4,6.3,39,0.00,,---,0.00,VWS V13.00,2013-10-02 19:31:00,
2013-10-02 15:36:00,77.5,50.7,28.88,West,272,2.2,6.3,39,0.00,,---,0.00,VWS V13.00,2013-10-02 19:36:00,
2013-10-02 15:41:00,79.0,50.5,28.88,WNW,287,3.1,5.4,37,0.00,,---,0.00,VWS V13.00,2013-10-02 19:41:00,
2013-10-02 15:46:00,77.4,49.1,28.88,West,262,5.4,8.3,37,0.00,,---,0.00,VWS V13.00,2013-10-02 19:46:00,
2013-10-02 15:51:00,77.4,48.3,28.88,WNW,295,4.9,8.3,36,0.00,,---,0.00,VWS V13.00,2013-10-02 19:51:00,
2013-10-02 15:56:00,77.4,49.1,28.88,WNW,303,0.0,8.3,37,0.00,,---,0.00,VWS V13.00,2013-10-02 19:56:00,
2013-10-02 16:01:00,77.4,49.1,28.88,WSW,251,3.1,4.0,37,0.00,,---,0.00,VWS V13.00,2013-10-02 20:01:00,
2013-10-02 16:06:00,77.4,47.6,28.88,WNW,299,5.4,8.3,35,0.00,,---,0.00,VWS V13.00,2013-10-02 20:06:00,
2013-10-02 16:11:00,78.6,47.9,28.88,West,269,5.8,8.3,34,0.00,,---,0.00,VWS V13.00,2013-10-02 20:11:00,
2013-10-02 16:16:00,79.2,47.6,28.88,West,278,5.8,8.3,33,0.00,,---,0.00,VWS V13.00,2013-10-02 20:16:00,
2013-10-02 16:21:00,79.2,46.8,28.88,WNW,294,5.8,6.3,32,0.00,,---,0.00,VWS V13.00,2013-10-02 20:21:00,
2013-10-02 16:26:00,78.8,45.6,28.88,WSW,248,5.4,6.3,31,0.00,,---,0.00,VWS V13.00,2013-10-02 20:26:00,
2013-10-02 16:31:00,78.6,47.1,28.88,WNW,288,6.3,8.7,33,0.00,,---,0.00,VWS V13.00,2013-10-02 20:31:00,
2013-10-02 16:36:00,79.0,45.8,28.88,West,280,3.6,8.7,31,0.00,,---,0.00,VWS V13.00,2013-10-02 20:36:00,
2013-10-02 16:41:00,79.2,46.0,28.88,WNW,289,5.8,6.7,31,0.00,,---,0.00,VWS V13.00,2013-10-02 20:41:00,
2013-10-02 16:46:00,78.8,46.5,28.88,WNW,290,4.9,6.7,32,0.00,,---,0.00,VWS V13.00,2013-10-02 20:46:00,
2013-10-02 16:51:00,78.6,46.3,28.88,WNW,294,4.9,6.7,32,0.00,,---,0.00,VWS V13.00,2013-10-02 20:51:00,
2013-10-02 16:56:00,79.2,46.8,28.88,West,277,3.6,6.7,32,0.00,,---,0.00,VWS V13.00,2013-10-02 20:56:00,
2013-10-02 17:02:00,79.0,47.5,28.88,WSW,248,5.8,5.8,33,0.00,,---,0.00,VWS V13.00,2013-10-02 21:02:00,
2013-10-02 17:07:00,78.6,46.3,28.88,West,278,3.1,7.6,32,0.00,,---,0.00,VWS V13.00,2013-10-02 21:07:00,
2013-10-02 17:12:00,77.9,46.5,28.88,West,271,3.6,7.6,33,0.00,,---,0.00,VWS V13.00,2013-10-02 21:12:00,
2013-10-02 17:17:00,78.4,47.8,28.88,West,281,4.0,7.6,34,0.00,,---,0.00,VWS V13.00,2013-10-02 21:17:00,
2013-10-02 17:22:00,78.4,47.8,28.88,West,278,2.2,3.6,34,0.00,,---,0.00,VWS V13.00,2013-10-02 21:22:00,
2013-10-02 17:27:00,78.8,46.5,28.88,WNW,296,3.1,4.0,32,0.00,,---,0.00,VWS V13.00,2013-10-02 21:27:00,
2013-10-02 17:32:00,78.6,47.1,28.88,WSW,258,0.0,4.0,33,0.00,,---,0.00,VWS V13.00,2013-10-02 21:32:00,
2013-10-02 17:37:00,78.3,47.6,28.88,West,269,4.0,4.0,34,0.00,,---,0.00,VWS V13.00,2013-10-02 21:37:00,
2013-10-02 17:42:00,77.9,47.3,28.88,WSW,249,4.0,5.4,34,0.00,,---,0.00,VWS V13.00,2013-10-02 21:42:00,
2013-10-02 17:47:00,77.7,47.9,28.88,West,265,0.0,5.4,35,0.00,,---,0.00,VWS V13.00,2013-10-02 21:47:00,
2013-10-02 17:52:00,77.7,47.1,28.88,West,276,5.4,5.4,34,0.00,,---,0.00,VWS V13.00,2013-10-02 21:52:00,
2013-10-02 17:57:00,77.2,48.9,28.88,West,280,2.2,5.4,37,0.00,,---,0.00,VWS V13.00,2013-10-02 21:57:00,
2013-10-02 18:02:00,77.0,48.8,28.88,West,268,2.7,4.0,37,0.00,,---,0.00,VWS V13.00,2013-10-02 22:02:00,
2013-10-02 18:07:00,76.3,50.2,28.88,West,272,0.0,4.0,40,0.00,,---,0.00,VWS V13.00,2013-10-02 22:07:00,
2013-10-02 18:12:00,76.1,50.0,28.88,West,272,0.0,4.0,40,0.00,,---,0.00,VWS V13.00,2013-10-02 22:12:00,
2013-10-02 18:17:00,75.2,49.2,28.88,West,273,0.0,4.0,40,0.00,,---,0.00,VWS V13.00,2013-10-02 22:17:00,
2013-10-02 18:22:00,75.2,50.6,28.88,West,272,0.0,0.0,42,0.00,,---,0.00,VWS V13.00,2013-10-02 22:22:00,
2013-10-02 18:28:00,74.5,50.5,28.88,West,272,0.0,0.0,43,0.00,,---,0.00,VWS V13.00,2013-10-02 22:28:00,
2013-10-02 18:33:00,74.3,51.6,28.88,West,272,0.0,2.2,45,0.00,,---,0.00,VWS V13.00,2013-10-02 22:33:00,
2013-10-02 18:38:00,74.1,52.0,28.88,WNW,284,0.0,2.2,46,0.00,,---,0.00,VWS V13.00,2013-10-02 22:38:00,
2013-10-02 18:43:00,74.5,54.6,28.88,WNW,285,0.0,0.0,50,0.00,,---,0.00,VWS V13.00,2013-10-02 22:43:00,
2013-10-02 18:48:00,74.8,52.1,28.88,WNW,284,0.0,0.0,45,0.00,,---,0.00,VWS V13.00,2013-10-02 22:48:00,
2013-10-02 18:53:00,74.5,54.1,28.88,WNW,284,0.0,0.0,49,0.00,,---,0.00,VWS V13.00,2013-10-02 22:53:00,
2013-10-02 18:58:00,74.1,53.8,28.88,WNW,284,0.0,0.0,49,0.00,,---,0.00,VWS V13.00,2013-10-02 22:58:00,
2013-10-02 19:03:00,73.2,54.0,28.88,WNW,284,0.0,0.0,51,0.00,,---,0.00,VWS V13.00,2013-10-02 23:03:00,
2013-10-02 19:08:00,72.5,54.4,28.88,WNW,284,0.0,0.0,53,0.00,,---,0.00,VWS V13.00,2013-10-02 23:08:00,
2013-10-02 19:13:00,72.0,54.9,28.88,WNW,284,0.0,0.0,55,0.00,,---,0.00,VWS V13.00,2013-10-02 23:13:00,
2013-10-02 19:18:00,71.2,53.8,28.88,WNW,284,0.0,0.0,54,0.00,,---,0.00,VWS V13.00,2013-10-02 23:18:00,
2013-10-02 19:23:00,70.9,53.9,28.88,WNW,284,0.0,0.0,55,0.00,,---,0.00,VWS V13.00,2013-10-02 23:23:00,
2013-10-02 19:28:00,70.5,55.0,28.88,WNW,284,0.0,0.0,58,0.00,,---,0.00,VWS V13.00,2013-10-02 23:28:00,
2013-10-02 19:33:00,70.0,55.0,28.88,WNW,284,0.0,0.0,59,0.00,,---,0.00,VWS V13.00,2013-10-02 23:33:00,
2013-10-02 19:38:00,69.6,56.0,28.88,WNW,284,0.0,0.0,62,0.00,,---,0.00,VWS V13.00,2013-10-02 23:38:00,
2013-10-02 19:43:00,69.3,57.0,28.88,WNW,284,0.0,0.0,65,0.00,,---,0.00,VWS V13.00,2013-10-02 23:43:00,
2013-10-02 19:49:00,69.1,57.7,28.88,WNW,284,0.0,0.0,67,0.00,,---,0.00,VWS V13.00,2013-10-02 23:49:00,
2013-10-02 19:54:00,68.9,58.3,28.88,WNW,284,0.0,0.0,69,0.00,,---,0.00,VWS V13.00,2013-10-02 23:54:00,
2013-10-02 19:59:00,68.5,58.4,28.88,WNW,284,0.0,0.0,70,0.00,,---,0.00,VWS V13.00,2013-10-02 23:59:00,
2013-10-02 20:04:00,68.4,58.6,28.88,WNW,284,0.0,0.0,71,0.00,,---,0.00,VWS V13.00,2013-10-03 00:04:00,
2013-10-02 20:09:00,68.2,59.6,28.88,WNW,284,0.0,0.0,74,0.00,,---,0.00,VWS V13.00,2013-10-03 00:09:00,
2013-10-02 20:14:00,68.0,60.2,28.88,WNW,284,0.0,0.0,76,0.00,,---,0.00,VWS V13.00,2013-10-03 00:14:00,
2013-10-02 20:19:00,67.8,60.3,28.88,WNW,284,0.0,0.0,77,0.00,,---,0.00,VWS V13.00,2013-10-03 00:19:00,
2013-10-02 20:24:00,67.6,60.5,28.88,WNW,284,0.0,0.0,78,0.00,,---,0.00,VWS V13.00,2013-10-03 00:24:00,
2013-10-02 20:29:00,67.6,61.3,28.88,WNW,284,0.0,0.0,80,0.00,,---,0.00,VWS V13.00,2013-10-03 00:29:00,
2013-10-02 20:34:00,67.8,62.1,28.88,WNW,284,0.0,0.0,82,0.00,,---,0.00,VWS V13.00,2013-10-03 00:34:00,
2013-10-02 20:40:00,68.0,62.7,28.91,WNW,284,0.0,0.0,83,0.00,,---,0.00,VWS V13.00,2013-10-03 00:40:00,
2013-10-02 20:45:00,68.2,62.1,28.91,WNW,290,0.0,3.1,81,0.00,,---,0.00,VWS V13.00,2013-10-03 00:45:00,
2013-10-02 20:50:00,68.5,61.4,28.91,WNW,290,0.0,3.1,78,0.00,,---,0.00,VWS V13.00,2013-10-03 00:50:00,
2013-10-02 20:55:00,68.5,61.0,28.91,WNW,290,0.0,3.1,77,0.00,,---,0.00,VWS V13.00,2013-10-03 00:55:00,
2013-10-02 21:00:00,68.4,61.6,28.91,NNW,341,3.1,3.1,79,0.00,,---,0.00,VWS V13.00,2013-10-03 01:00:00,
2013-10-02 21:05:00,68.0,62.7,28.91,NE,56,0.0,3.1,83,0.00,,---,0.00,VWS V13.00,2013-10-03 01:05:00,
2013-10-02 21:10:00,67.8,62.8,28.91,NE,56,0.0,3.1,84,0.00,,---,0.00,VWS V13.00,2013-10-03 01:10:00,
2013-10-02 21:15:00,67.6,63.0,28.91,NE,56,0.0,3.1,85,0.00,,---,0.00,VWS V13.00,2013-10-03 01:15:00,
2013-10-02 21:20:00,67.6,63.0,28.91,NE,56,0.0,0.0,85,0.00,,---,0.00,VWS V13.00,2013-10-03 01:20:00,
2013-10-02 21:25:00,67.5,63.1,28.91,NE,56,0.0,0.0,86,0.00,,---,0.00,VWS V13.00,2013-10-03 01:25:00,
2013-10-02 21:30:00,67.3,63.3,28.91,NE,56,0.0,0.0,87,0.00,,---,0.00,VWS V13.00,2013-10-03 01:30:00,
2013-10-02 21:35:00,67.1,63.8,28.91,NE,56,0.0,0.0,89,0.00,,---,0.00,VWS V13.00,2013-10-03 01:35:00,
2013-10-02 21:40:00,67.1,64.1,28.91,NE,56,0.0,0.0,90,0.00,,---,0.00,VWS V13.00,2013-10-03 01:40:00,
2013-10-02 21:46:00,67.1,64.1,28.91,NE,56,0.0,0.0,90,0.00,,---,0.00,VWS V13.00,2013-10-03 01:46:00,
2013-10-02 21:51:00,66.9,64.2,28.91,NE,56,0.0,0.0,91,0.00,,---,0.00,VWS V13.00,2013-10-03 01:51:00,
2013-10-02 21:56:00,66.7,64.0,28.91,NE,56,0.0,0.0,91,0.00,,---,0.00,VWS V13.00,2013-10-03 01:56:00,
2013-10-02 22:01:00,66.6,63.9,28.91,NE,56,0.0,0.0,91,0.00,,---,0.00,VWS V13.00,2013-10-03 02:01:00,
2013-10-02 22:05:00,66.4,63.7,28.91,NE,56,0.0,0.0,91,0.00,,---,0.00,VWS V13.00,2013-10-03 02:05:00,
2013-10-02 22:10:00,66.2,64.1,28.91,NE,56,0.0,0.0,93,0.00,,---,0.00,VWS V13.00,2013-10-03 02:10:00,
2013-10-02 22:15:00,66.2,64.4,28.91,NE,56,0.0,0.0,94,0.00,,---,0.00,VWS V13.00,2013-10-03 02:15:00,
2013-10-02 22:20:00,66.0,64.6,28.91,NE,56,0.0,0.0,95,0.00,,---,0.00,VWS V13.00,2013-10-03 02:20:00,
2013-10-02 22:25:00,66.0,64.8,28.91,NE,56,0.0,0.0,96,0.00,,---,0.00,VWS V13.00,2013-10-03 02:25:00,
2013-10-02 22:30:00,65.8,64.7,28.91,NE,56,0.0,0.0,96,0.00,,---,0.00,VWS V13.00,2013-10-03 02:30:00,
2013-10-02 22:35:00,65.7,64.5,28.91,NE,56,0.0,0.0,96,0.00,,---,0.00,VWS V13.00,2013-10-03 02:35:00,
2013-10-02 22:40:00,65.7,64.5,28.91,NE,56,0.0,0.0,96,0.00,,---,0.00,VWS V13.00,2013-10-03 02:40:00,
2013-10-02 22:46:00,65.5,64.3,28.91,NE,56,0.0,0.0,96,0.00,,---,0.00,VWS V13.00,2013-10-03 02:46:00,
2013-10-02 22:51:00,65.3,64.4,28.91,NE,56,0.0,0.0,97,0.00,,---,0.00,VWS V13.00,2013-10-03 02:51:00,
2013-10-02 22:56:00,65.1,64.5,28.91,NE,56,2.7,3.1,98,0.00,,---,0.00,VWS V13.00,2013-10-03 02:56:00,
2013-10-02 23:01:00,64.9,64.4,28.91,NE,56,0.0,0.0,98,0.00,,---,0.00,VWS V13.00,2013-10-03 03:01:00,
2013-10-02 23:06:00,64.9,64.4,28.91,NE,56,0.0,0.0,98,0.00,,---,0.00,VWS V13.00,2013-10-03 03:06:00,
2013-10-02 23:11:00,64.8,64.2,28.91,NE,56,0.0,0.0,98,0.00,,---,0.00,VWS V13.00,2013-10-03 03:11:00,
2013-10-02 23:16:00,64.8,64.2,28.91,NE,56,0.0,0.0,98,0.00,,---,0.00,VWS V13.00,2013-10-03 03:16:00,
2013-10-02 23:21:00,64.8,64.2,28.91,NE,56,0.0,0.0,98,0.00,,---,0.00,VWS V13.00,2013-10-03 03:21:00,
2013-10-02 23:26:00,64.9,64.4,28.91,NE,56,0.0,0.0,98,0.00,,---,0.00,VWS V13.00,2013-10-03 03:26:00,
2013-10-02 23:31:00,64.6,64.0,28.91,NE,56,0.0,0.0,98,0.00,,---,0.00,VWS V13.00,2013-10-03 03:31:00,
2013-10-02 23:36:00,64.4,63.8,28.91,NE,56,0.0,0.0,98,0.00,,---,0.00,VWS V13.00,2013-10-03 03:36:00,
2013-10-02 23:41:00,64.4,63.8,28.91,NE,56,0.0,0.0,98,0.00,,---,0.00,VWS V13.00,2013-10-03 03:41:00,
2013-10-02 23:47:00,64.4,63.8,28.91,NE,56,0.0,0.0,98,0.00,,---,0.00,VWS V13.00,2013-10-03 03:47:00,
2013-10-02 23:52:00,64.2,63.7,28.91,NE,56,0.0,0.0,98,0.00,,---,0.00,VWS V13.00,2013-10-03 03:52:00,
2013-10-02 23:57:00,64.0,63.5,28.91,NE,56,0.0,0.0,98,0.00,,---,0.00,VWS V13.00,2013-10-03 03:57:00,